sensor_id;sensor_type;location;lat;lon;timestamp;pressure;altitude;pressure_sealevel;temperature;humidity
63665;BME280;49820;33.966;73.390;2022-07-06T05:01:38;78897.75;;;26.42;78.61
63665;BME280;49820;33.966;73.390;2022-07-06T05:04:11;78902.13;;;25.40;79.38
63665;BME280;49820;33.966;73.390;2022-07-06T05:06:42;78904.78;;;25.02;83.87
63665;BME280;49820;33.966;73.390;2022-07-06T05:09:13;78902.72;;;24.81;87.48
63665;BME280;49820;33.966;73.390;2022-07-06T05:11:46;78895.16;;;25.33;86.82
63665;BME280;49820;33.966;73.390;2022-07-06T05:14:18;78895.28;;;25.01;92.00
63665;BME280;49820;33.966;73.390;2022-07-06T05:16:50;78902.41;;;25.06;84.34
63665;BME280;49820;33.966;73.390;2022-07-06T05:19:23;78872.13;;;24.89;91.29
63665;BME280;49820;33.966;73.390;2022-07-06T05:21:55;78898.13;;;26.08;90.96
63665;BME280;49820;33.966;73.390;2022-07-06T05:24:27;78907.97;;;27.35;79.13
63665;BME280;49820;33.966;73.390;2022-07-06T05:26:58;78895.16;;;26.68;80.61
63665;BME280;49820;33.966;73.390;2022-07-06T05:29:30;78916.06;;;26.35;76.80
63665;BME280;49820;33.966;73.390;2022-07-06T05:32:02;78929.03;;;25.57;76.46
63665;BME280;49820;33.966;73.390;2022-07-06T05:34:34;78948.06;;;25.19;80.67
63665;BME280;49820;33.966;73.390;2022-07-06T05:37:07;78889.28;;;24.98;80.56
63665;BME280;49820;33.966;73.390;2022-07-06T05:39:39;78945.59;;;26.62;74.40
63665;BME280;49820;33.966;73.390;2022-07-06T05:42:14;78914.06;;;26.72;71.10
63665;BME280;49820;33.966;73.390;2022-07-06T05:44:47;78891.41;;;27.18;73.93
63665;BME280;49820;33.966;73.390;2022-07-06T05:47:18;78948.72;;;29.09;75.31
63665;BME280;49820;33.966;73.390;2022-07-06T05:50:08;78923.34;;;27.13;67.10
63665;BME280;49820;33.966;73.390;2022-07-06T05:52:58;78950.63;;;27.15;72.79
63665;BME280;49820;33.966;73.390;2022-07-06T05:55:40;78956.75;;;26.69;73.60
63665;BME280;49820;33.966;73.390;2022-07-06T05:58:11;78960.25;;;26.86;73.36
63665;BME280;49820;33.966;73.390;2022-07-06T06:00:44;78958.09;;;26.50;73.41
63665;BME280;49820;33.966;73.390;2022-07-06T06:03:18;78937.47;;;26.32;75.36
63665;BME280;49820;33.966;73.390;2022-07-06T06:05:50;78932.50;;;26.82;79.27
63665;BME280;49820;33.966;73.390;2022-07-06T06:08:23;78927.41;;;26.67;70.83
63665;BME280;49820;33.966;73.390;2022-07-06T06:10:55;78932.38;;;27.85;68.11
63665;BME280;49820;33.966;73.390;2022-07-06T06:13:29;78910.66;;;28.26;63.77
63665;BME280;49820;33.966;73.390;2022-07-06T06:16:01;78914.00;;;27.19;67.87
63665;BME280;49820;33.966;73.390;2022-07-06T06:18:32;78935.03;;;26.94;78.87
63665;BME280;49820;33.966;73.390;2022-07-06T06:21:16;78950.00;;;26.10;83.51
63665;BME280;49820;33.966;73.390;2022-07-06T06:23:46;78920.16;;;26.06;84.52
63665;BME280;49820;33.966;73.390;2022-07-06T06:26:17;78942.28;;;25.93;82.21
63665;BME280;49820;33.966;73.390;2022-07-06T06:28:49;78950.16;;;25.18;92.34
63665;BME280;49820;33.966;73.390;2022-07-06T06:31:21;78936.59;;;24.76;91.13
63665;BME280;49820;33.966;73.390;2022-07-06T06:33:51;78949.78;;;24.41;100.00
63665;BME280;49820;33.966;73.390;2022-07-06T06:36:23;78908.06;;;24.21;100.00
63665;BME280;49820;33.966;73.390;2022-07-06T06:38:58;78948.63;;;24.27;100.00
63665;BME280;49820;33.966;73.390;2022-07-06T06:41:34;78949.53;;;24.45;100.00
63665;BME280;49820;33.966;73.390;2022-07-06T06:44:05;78954.09;;;24.38;100.00
63665;BME280;49820;33.966;73.390;2022-07-06T06:46:43;78931.31;;;24.42;100.00
63665;BME280;49820;33.966;73.390;2022-07-06T06:49:18;78937.28;;;24.44;100.00
63665;BME280;49820;33.966;73.390;2022-07-06T06:51:48;78927.16;;;24.43;100.00
63665;BME280;49820;33.966;73.390;2022-07-06T06:54:42;78939.31;;;24.76;100.00
63665;BME280;49820;33.966;73.390;2022-07-06T06:57:14;78937.25;;;24.65;100.00
63665;BME280;49820;33.966;73.390;2022-07-06T06:59:44;78939.13;;;24.48;92.95
63665;BME280;49820;33.966;73.390;2022-07-06T07:02:17;78940.66;;;24.02;100.00
63665;BME280;49820;33.966;73.390;2022-07-06T07:04:50;78925.06;;;23.69;100.00
63665;BME280;49820;33.966;73.390;2022-07-06T07:07:21;78950.78;;;23.50;100.00
63665;BME280;49820;33.966;73.390;2022-07-06T07:09:51;78958.09;;;23.31;100.00
63665;BME280;49820;33.966;73.390;2022-07-06T07:12:26;78959.78;;;23.26;100.00
63665;BME280;49820;33.966;73.390;2022-07-06T07:15:00;78951.06;;;23.23;100.00
63665;BME280;49820;33.966;73.390;2022-07-06T07:17:30;78925.41;;;22.97;100.00
63665;BME280;49820;33.966;73.390;2022-07-06T07:20:04;78945.41;;;22.93;100.00
63665;BME280;49820;33.966;73.390;2022-07-06T07:22:38;78941.25;;;22.71;100.00
63665;BME280;49820;33.966;73.390;2022-07-06T07:25:10;78957.38;;;22.75;100.00
63665;BME280;49820;33.966;73.390;2022-07-06T07:27:43;78946.91;;;22.33;100.00
63665;BME280;49820;33.966;73.390;2022-07-06T07:30:16;78925.00;;;22.35;100.00
63665;BME280;49820;33.966;73.390;2022-07-06T07:32:49;78933.31;;;22.67;100.00
63665;BME280;49820;33.966;73.390;2022-07-06T07:35:23;78928.91;;;22.38;100.00
63665;BME280;49820;33.966;73.390;2022-07-06T07:37:54;78925.59;;;22.25;100.00
63665;BME280;49820;33.966;73.390;2022-07-06T07:40:28;78930.06;;;22.64;99.82
63665;BME280;49820;33.966;73.390;2022-07-06T07:43:00;78878.09;;;23.13;100.00
63665;BME280;49820;33.966;73.390;2022-07-06T07:45:33;78936.28;;;25.01;100.00
63665;BME280;49820;33.966;73.390;2022-07-06T07:48:05;78906.97;;;25.89;100.00
63665;BME280;49820;33.966;73.390;2022-07-06T07:50:35;78908.91;;;25.71;98.38
63665;BME280;49820;33.966;73.390;2022-07-06T07:53:08;78931.47;;;25.01;70.83
63665;BME280;49820;33.966;73.390;2022-07-06T07:55:42;78949.88;;;24.71;88.99
63665;BME280;49820;33.966;73.390;2022-07-06T07:58:12;78950.94;;;24.55;89.69
63665;BME280;49820;33.966;73.390;2022-07-06T08:00:47;78951.22;;;24.29;100.00
63665;BME280;49820;33.966;73.390;2022-07-06T08:03:17;78954.06;;;24.06;100.00
63665;BME280;49820;33.966;73.390;2022-07-06T08:05:50;78945.47;;;24.55;100.00
63665;BME280;49820;33.966;73.390;2022-07-06T08:08:22;78932.94;;;24.79;100.00
63665;BME280;49820;33.966;73.390;2022-07-06T08:10:53;78922.72;;;25.39;100.00
63665;BME280;49820;33.966;73.390;2022-07-06T08:13:44;78918.94;;;26.13;100.00
63665;BME280;49820;33.966;73.390;2022-07-06T08:16:14;78945.03;;;26.32;100.00
63665;BME280;49820;33.966;73.390;2022-07-06T08:18:49;78925.53;;;25.59;89.61
63665;BME280;49820;33.966;73.390;2022-07-06T08:21:20;78920.16;;;25.37;93.57
63665;BME280;49820;33.966;73.390;2022-07-06T08:23:54;78902.50;;;24.75;100.00
63665;BME280;49820;33.966;73.390;2022-07-06T08:26:27;78934.69;;;24.42;89.52
63665;BME280;49820;33.966;73.390;2022-07-06T08:29:03;78914.03;;;24.13;100.00
63665;BME280;49820;33.966;73.390;2022-07-06T08:31:40;78875.53;;;23.32;96.33
63665;BME280;49820;33.966;73.390;2022-07-06T08:34:31;78929.00;;;23.27;83.06
63665;BME280;49820;33.966;73.390;2022-07-06T08:37:04;78968.41;;;23.07;88.77
63665;BME280;49820;33.966;73.390;2022-07-06T08:39:34;78962.09;;;22.64;93.18
63665;BME280;49820;33.966;73.390;2022-07-06T08:42:08;78948.06;;;22.59;100.00
63665;BME280;49820;33.966;73.390;2022-07-06T08:44:40;78924.56;;;22.30;100.00
63665;BME280;49820;33.966;73.390;2022-07-06T08:47:13;78922.88;;;22.01;100.00
63665;BME280;49820;33.966;73.390;2022-07-06T08:49:45;78931.72;;;21.41;100.00
63665;BME280;49820;33.966;73.390;2022-07-06T08:52:21;78936.13;;;21.23;100.00
63665;BME280;49820;33.966;73.390;2022-07-06T08:54:55;78951.19;;;21.45;100.00
63665;BME280;49820;33.966;73.390;2022-07-06T08:57:26;78945.13;;;21.32;100.00
63665;BME280;49820;33.966;73.390;2022-07-06T09:00:00;78951.53;;;21.01;100.00
63665;BME280;49820;33.966;73.390;2022-07-06T09:02:37;78967.72;;;21.03;100.00
63665;BME280;49820;33.966;73.390;2022-07-06T09:05:14;78952.50;;;21.08;100.00
63665;BME280;49820;33.966;73.390;2022-07-06T09:07:50;78950.66;;;21.17;100.00
63665;BME280;49820;33.966;73.390;2022-07-06T09:10:28;78936.13;;;20.98;100.00
63665;BME280;49820;33.966;73.390;2022-07-06T09:13:07;78941.44;;;20.87;100.00
63665;BME280;49820;33.966;73.390;2022-07-06T09:15:38;78927.94;;;20.60;100.00
63665;BME280;49820;33.966;73.390;2022-07-06T09:18:12;78951.09;;;20.59;100.00
63665;BME280;49820;33.966;73.390;2022-07-06T09:20:43;78930.38;;;20.13;100.00
63665;BME280;49820;33.966;73.390;2022-07-06T09:23:15;78934.69;;;20.08;100.00
63665;BME280;49820;33.966;73.390;2022-07-06T09:25:50;78956.00;;;20.29;100.00
63665;BME280;49820;33.966;73.390;2022-07-06T09:28:21;78933.41;;;20.07;100.00
63665;BME280;49820;33.966;73.390;2022-07-06T09:30:57;78948.41;;;20.18;100.00
63665;BME280;49820;33.966;73.390;2022-07-06T09:34:04;78954.50;;;20.32;100.00
63665;BME280;49820;33.966;73.390;2022-07-06T09:36:48;78951.72;;;20.06;100.00
63665;BME280;49820;33.966;73.390;2022-07-06T09:39:23;78978.03;;;19.95;100.00
63665;BME280;49820;33.966;73.390;2022-07-06T09:42:01;78976.06;;;19.81;100.00
63665;BME280;49820;33.966;73.390;2022-07-06T09:44:35;78980.06;;;19.82;100.00
63665;BME280;49820;33.966;73.390;2022-07-06T09:47:10;78959.94;;;19.64;100.00
63665;BME280;49820;33.966;73.390;2022-07-06T09:49:45;78947.19;;;19.48;100.00
63665;BME280;49820;33.966;73.390;2022-07-06T09:52:18;78939.91;;;19.30;100.00
63665;BME280;49820;33.966;73.390;2022-07-06T09:54:49;78950.31;;;19.25;100.00
63665;BME280;49820;33.966;73.390;2022-07-06T09:57:23;78956.13;;;19.17;100.00
63665;BME280;49820;33.966;73.390;2022-07-06T09:59:55;78944.28;;;19.10;100.00
63665;BME280;49820;33.966;73.390;2022-07-06T10:02:38;78943.41;;;19.14;100.00
63665;BME280;49820;33.966;73.390;2022-07-06T10:05:12;78946.22;;;19.12;100.00
63665;BME280;49820;33.966;73.390;2022-07-06T10:07:56;78950.91;;;18.98;100.00
63665;BME280;49820;33.966;73.390;2022-07-06T10:10:30;78954.38;;;18.97;100.00
63665;BME280;49820;33.966;73.390;2022-07-06T10:13:05;78949.06;;;18.95;100.00
63665;BME280;49820;33.966;73.390;2022-07-06T10:15:37;78961.47;;;19.04;100.00
63665;BME280;49820;33.966;73.390;2022-07-06T10:18:10;78966.22;;;19.04;100.00
63665;BME280;49820;33.966;73.390;2022-07-06T10:20:40;78955.56;;;19.15;100.00
63665;BME280;49820;33.966;73.390;2022-07-06T10:23:15;78973.84;;;19.29;100.00
63665;BME280;49820;33.966;73.390;2022-07-06T10:25:58;78972.19;;;19.21;100.00
63665;BME280;49820;33.966;73.390;2022-07-06T10:28:40;78946.16;;;18.99;100.00
63665;BME280;49820;33.966;73.390;2022-07-06T10:31:18;78941.78;;;18.91;100.00
63665;BME280;49820;33.966;73.390;2022-07-06T10:33:53;78941.31;;;18.87;100.00
63665;BME280;49820;33.966;73.390;2022-07-06T10:36:29;78957.53;;;19.01;100.00
63665;BME280;49820;33.966;73.390;2022-07-06T10:39:02;78947.66;;;18.96;100.00
63665;BME280;49820;33.966;73.390;2022-07-06T10:41:53;78941.97;;;18.87;100.00
63665;BME280;49820;33.966;73.390;2022-07-06T10:44:32;78904.19;;;18.56;100.00
63665;BME280;49820;33.966;73.390;2022-07-06T10:47:15;78955.69;;;18.83;100.00
63665;BME280;49820;33.966;73.390;2022-07-06T10:49:49;78936.31;;;18.64;100.00
63665;BME280;49820;33.966;73.390;2022-07-06T10:52:48;78943.75;;;18.78;100.00
63665;BME280;49820;33.966;73.390;2022-07-06T10:55:34;78925.94;;;18.68;100.00
63665;BME280;49820;33.966;73.390;2022-07-06T10:58:06;78922.56;;;18.68;100.00
63665;BME280;49820;33.966;73.390;2022-07-06T11:00:50;78929.38;;;18.67;100.00
63665;BME280;49820;33.966;73.390;2022-07-06T11:06:46;78941.06;;;18.63;100.00
63665;BME280;49820;33.966;73.390;2022-07-06T11:09:18;78947.31;;;18.60;100.00
63665;BME280;49820;33.966;73.390;2022-07-06T11:11:52;78925.28;;;18.53;100.00
63665;BME280;49820;33.966;73.390;2022-07-06T11:14:23;78900.66;;;18.30;100.00
63665;BME280;49820;33.966;73.390;2022-07-06T11:17:02;78918.63;;;18.50;100.00
63665;BME280;49820;33.966;73.390;2022-07-06T11:19:38;78899.91;;;18.32;100.00
63665;BME280;49820;33.966;73.390;2022-07-06T11:22:24;78915.94;;;18.36;100.00
63665;BME280;49820;33.966;73.390;2022-07-06T11:25:00;78913.06;;;18.40;100.00
63665;BME280;49820;33.966;73.390;2022-07-06T11:27:33;78905.88;;;18.34;100.00
63665;BME280;49820;33.966;73.390;2022-07-06T11:30:08;78901.31;;;18.30;100.00
63665;BME280;49820;33.966;73.390;2022-07-06T11:32:43;78882.00;;;18.24;100.00
63665;BME280;49820;33.966;73.390;2022-07-06T11:35:21;78890.00;;;18.26;100.00
63665;BME280;49820;33.966;73.390;2022-07-06T11:37:52;78887.88;;;18.14;100.00
63665;BME280;49820;33.966;73.390;2022-07-06T11:40:28;78892.53;;;18.30;100.00
63665;BME280;49820;33.966;73.390;2022-07-06T11:43:03;78852.91;;;18.10;100.00
63665;BME280;49820;33.966;73.390;2022-07-06T11:45:37;78858.78;;;18.14;100.00
63665;BME280;49820;33.966;73.390;2022-07-06T11:48:11;78873.13;;;18.25;100.00
63665;BME280;49820;33.966;73.390;2022-07-06T11:51:00;78858.88;;;18.27;100.00
63665;BME280;49820;33.966;73.390;2022-07-06T11:53:34;78849.66;;;18.22;100.00
63665;BME280;49820;33.966;73.390;2022-07-06T11:56:06;78826.22;;;18.16;100.00
63665;BME280;49820;33.966;73.390;2022-07-06T11:58:41;78829.78;;;18.27;100.00
63665;BME280;49820;33.966;73.390;2022-07-06T12:01:16;78769.31;;;17.91;100.00
63665;BME280;49820;33.966;73.390;2022-07-06T12:03:48;78800.03;;;18.27;100.00
63665;BME280;49820;33.966;73.390;2022-07-06T12:06:21;78796.31;;;18.20;100.00
63665;BME280;49820;33.966;73.390;2022-07-06T12:08:57;78800.50;;;18.32;100.00
63665;BME280;49820;33.966;73.390;2022-07-06T12:11:37;78801.13;;;18.33;100.00
63665;BME280;49820;33.966;73.390;2022-07-06T12:17:16;78781.38;;;18.21;100.00
63665;BME280;49820;33.966;73.390;2022-07-06T12:19:55;78780.00;;;18.22;100.00
63665;BME280;49820;33.966;73.390;2022-07-06T12:22:26;78769.63;;;18.27;100.00
63665;BME280;49820;33.966;73.390;2022-07-06T12:24:58;78765.59;;;18.26;100.00
63665;BME280;49820;33.966;73.390;2022-07-06T12:27:34;78770.09;;;18.17;100.00
63665;BME280;49820;33.966;73.390;2022-07-06T12:30:45;78755.28;;;18.16;100.00
63665;BME280;49820;33.966;73.390;2022-07-06T12:36:24;78742.31;;;18.18;100.00
63665;BME280;49820;33.966;73.390;2022-07-06T12:38:54;78725.56;;;18.01;100.00
63665;BME280;49820;33.966;73.390;2022-07-06T12:41:32;78726.03;;;18.06;100.00
63665;BME280;49820;33.966;73.390;2022-07-06T12:47:06;78748.91;;;18.36;100.00
63665;BME280;49820;33.966;73.390;2022-07-06T12:49:38;78754.56;;;18.45;100.00
63665;BME280;49820;33.966;73.390;2022-07-06T12:52:16;78766.22;;;18.41;100.00
63665;BME280;49820;33.966;73.390;2022-07-06T12:54:50;78778.06;;;18.48;100.00
63665;BME280;49820;33.966;73.390;2022-07-06T12:57:22;78794.19;;;18.50;100.00
63665;BME280;49820;33.966;73.390;2022-07-06T12:59:56;78794.59;;;18.42;100.00
63665;BME280;49820;33.966;73.390;2022-07-06T13:02:34;78787.72;;;18.30;100.00
63665;BME280;49820;33.966;73.390;2022-07-06T13:05:27;78795.47;;;18.24;100.00
63665;BME280;49820;33.966;73.390;2022-07-06T13:07:58;78779.84;;;17.97;100.00
63665;BME280;49820;33.966;73.390;2022-07-06T13:10:30;78814.84;;;18.28;100.00
63665;BME280;49820;33.966;73.390;2022-07-06T13:13:03;78820.44;;;18.24;100.00
63665;BME280;49820;33.966;73.390;2022-07-06T13:15:42;78796.88;;;17.93;100.00
63665;BME280;49820;33.966;73.390;2022-07-06T13:18:14;78841.31;;;18.26;100.00
63665;BME280;49820;33.966;73.390;2022-07-06T13:20:44;78810.88;;;17.98;100.00
63665;BME280;49820;33.966;73.390;2022-07-06T13:23:15;78826.25;;;18.02;100.00
63665;BME280;49820;33.966;73.390;2022-07-06T13:25:46;78841.25;;;18.28;100.00
63665;BME280;49820;33.966;73.390;2022-07-06T13:28:17;78855.09;;;18.49;100.00
63665;BME280;49820;33.966;73.390;2022-07-06T13:30:48;78822.94;;;18.43;100.00
63665;BME280;49820;33.966;73.390;2022-07-06T13:33:19;78854.25;;;18.67;100.00
63665;BME280;49820;33.966;73.390;2022-07-06T13:35:50;78825.81;;;18.54;100.00
63665;BME280;49820;33.966;73.390;2022-07-06T13:38:21;78843.34;;;18.70;100.00
63665;BME280;49820;33.966;73.390;2022-07-06T13:40:53;78877.00;;;18.87;100.00
63665;BME280;49820;33.966;73.390;2022-07-06T13:43:23;78872.25;;;18.73;100.00
63665;BME280;49820;33.966;73.390;2022-07-06T13:45:55;78832.56;;;18.40;100.00
63665;BME280;49820;33.966;73.390;2022-07-06T13:48:26;78848.97;;;18.36;100.00
63665;BME280;49820;33.966;73.390;2022-07-06T13:50:56;78854.66;;;18.45;100.00
63665;BME280;49820;33.966;73.390;2022-07-06T13:53:28;78840.47;;;18.44;100.00
63665;BME280;49820;33.966;73.390;2022-07-06T13:55:58;78863.50;;;18.73;100.00
63665;BME280;49820;33.966;73.390;2022-07-06T13:58:29;78852.22;;;18.68;100.00
63665;BME280;49820;33.966;73.390;2022-07-06T14:01:00;78867.31;;;18.78;100.00
63665;BME280;49820;33.966;73.390;2022-07-06T14:03:32;78869.16;;;18.81;100.00
63665;BME280;49820;33.966;73.390;2022-07-06T14:06:04;78880.63;;;18.96;100.00
63665;BME280;49820;33.966;73.390;2022-07-06T14:08:38;78886.03;;;18.96;100.00
63665;BME280;49820;33.966;73.390;2022-07-06T14:11:09;78876.75;;;18.79;100.00
63665;BME280;49820;33.966;73.390;2022-07-06T14:13:40;78880.75;;;18.80;100.00
63665;BME280;49820;33.966;73.390;2022-07-06T14:16:11;78878.97;;;18.74;100.00
63665;BME280;49820;33.966;73.390;2022-07-06T14:18:42;78894.38;;;18.78;100.00
63665;BME280;49820;33.966;73.390;2022-07-06T14:21:13;78883.56;;;18.78;100.00
63665;BME280;49820;33.966;73.390;2022-07-06T14:23:44;78895.13;;;18.76;100.00
63665;BME280;49820;33.966;73.390;2022-07-06T14:26:15;78879.75;;;18.58;100.00
63665;BME280;49820;33.966;73.390;2022-07-06T14:28:46;78901.50;;;18.71;100.00
63665;BME280;49820;33.966;73.390;2022-07-06T14:31:16;78884.41;;;18.59;100.00
63665;BME280;49820;33.966;73.390;2022-07-06T14:33:50;78891.88;;;18.59;100.00
63665;BME280;49820;33.966;73.390;2022-07-06T14:36:21;78866.88;;;18.44;100.00
63665;BME280;49820;33.966;73.390;2022-07-06T14:38:52;78885.81;;;18.58;100.00
63665;BME280;49820;33.966;73.390;2022-07-06T14:41:22;78868.53;;;18.51;100.00
63665;BME280;49820;33.966;73.390;2022-07-06T14:43:53;78867.16;;;18.52;100.00
63665;BME280;49820;33.966;73.390;2022-07-06T14:46:24;78880.88;;;18.63;100.00
63665;BME280;49820;33.966;73.390;2022-07-06T14:48:55;78886.88;;;18.93;100.00
63665;BME280;49820;33.966;73.390;2022-07-06T14:51:26;78866.19;;;18.87;100.00
63665;BME280;49820;33.966;73.390;2022-07-06T14:53:57;78885.00;;;19.04;100.00
63665;BME280;49820;33.966;73.390;2022-07-06T14:56:27;78854.59;;;18.89;100.00
63665;BME280;49820;33.966;73.390;2022-07-06T14:58:58;78872.84;;;19.03;97.20
63665;BME280;49820;33.966;73.390;2022-07-06T15:01:48;78879.19;;;19.12;96.04
63665;BME280;49820;33.966;73.390;2022-07-06T15:04:19;78881.84;;;19.27;94.90
63665;BME280;49820;33.966;73.390;2022-07-06T15:06:50;78876.88;;;19.31;93.84
63665;BME280;49820;33.966;73.390;2022-07-06T15:09:23;78885.91;;;19.40;94.90
63665;BME280;49820;33.966;73.390;2022-07-06T15:11:58;78886.91;;;19.20;96.50
63665;BME280;49820;33.966;73.390;2022-07-06T15:14:41;78892.88;;;19.23;94.04
63665;BME280;49820;33.966;73.390;2022-07-06T15:17:30;78902.94;;;19.24;85.33
63665;BME280;49820;33.966;73.390;2022-07-06T15:20:02;78896.94;;;19.09;92.62
63665;BME280;49820;33.966;73.390;2022-07-06T15:22:48;78904.75;;;19.15;89.49
63665;BME280;49820;33.966;73.390;2022-07-06T15:25:19;78886.22;;;18.92;95.17
63665;BME280;49820;33.966;73.390;2022-07-06T15:28:08;78910.94;;;18.99;96.12
63665;BME280;49820;33.966;73.390;2022-07-06T15:30:40;78884.94;;;18.77;93.28
63665;BME280;49820;33.966;73.390;2022-07-06T15:33:11;78894.75;;;18.84;92.70
63665;BME280;49820;33.966;73.390;2022-07-06T15:35:46;78902.78;;;18.86;87.60
63665;BME280;49820;33.966;73.390;2022-07-06T15:38:23;78927.41;;;19.22;86.14
63665;BME280;49820;33.966;73.390;2022-07-06T15:41:02;78925.47;;;19.21;87.22
63665;BME280;49820;33.966;73.390;2022-07-06T15:43:34;78926.97;;;19.18;88.27
63665;BME280;49820;33.966;73.390;2022-07-06T15:46:06;78940.81;;;19.12;89.77
63665;BME280;49820;33.966;73.390;2022-07-06T15:48:40;78931.88;;;19.00;89.80
63665;BME280;49820;33.966;73.390;2022-07-06T15:51:15;78941.69;;;18.93;93.45
63665;BME280;49820;33.966;73.390;2022-07-06T15:53:50;78952.28;;;19.27;87.64
63665;BME280;49820;33.966;73.390;2022-07-06T15:56:21;78928.59;;;19.13;89.59
63665;BME280;49820;33.966;73.390;2022-07-06T15:58:54;78942.22;;;19.11;93.11
63665;BME280;49820;33.966;73.390;2022-07-06T16:01:29;78933.03;;;18.76;96.65
63665;BME280;49820;33.966;73.390;2022-07-06T16:04:06;78949.81;;;18.79;96.14
63665;BME280;49820;33.966;73.390;2022-07-06T16:06:40;78944.78;;;18.85;95.57
63665;BME280;49820;33.966;73.390;2022-07-06T16:09:34;78931.63;;;18.77;95.73
63665;BME280;49820;33.966;73.390;2022-07-06T16:12:06;78980.53;;;18.88;98.17
63665;BME280;49820;33.966;73.390;2022-07-06T16:14:41;78973.53;;;18.78;98.80
63665;BME280;49820;33.966;73.390;2022-07-06T16:17:11;78968.69;;;18.81;97.21
63665;BME280;49820;33.966;73.390;2022-07-06T16:19:43;78980.03;;;18.98;96.24
63665;BME280;49820;33.966;73.390;2022-07-06T16:22:24;78970.81;;;18.78;99.28
63665;BME280;49820;33.966;73.390;2022-07-06T16:24:58;78963.34;;;18.79;98.64
63665;BME280;49820;33.966;73.390;2022-07-06T16:27:34;78980.81;;;18.96;98.36
63665;BME280;49820;33.966;73.390;2022-07-06T16:30:08;78970.13;;;19.07;95.20
63665;BME280;49820;33.966;73.390;2022-07-06T16:32:53;78980.69;;;19.13;94.90
63665;BME280;49820;33.966;73.390;2022-07-06T16:35:24;78979.28;;;19.14;94.02
63665;BME280;49820;33.966;73.390;2022-07-06T16:37:56;78988.69;;;19.30;94.18
63665;BME280;49820;33.966;73.390;2022-07-06T16:40:26;78963.41;;;19.06;95.12
63665;BME280;49820;33.966;73.390;2022-07-06T16:43:00;78990.94;;;19.25;94.82
63665;BME280;49820;33.966;73.390;2022-07-06T16:45:36;78965.66;;;19.01;95.71
63665;BME280;49820;33.966;73.390;2022-07-06T16:48:13;78993.28;;;19.19;97.07
63665;BME280;49820;33.966;73.390;2022-07-06T16:50:51;78982.00;;;18.99;98.58
63665;BME280;49820;33.966;73.390;2022-07-06T16:53:23;78985.56;;;18.96;100.00
63665;BME280;49820;33.966;73.390;2022-07-06T16:55:59;78991.06;;;18.94;100.00
63665;BME280;49820;33.966;73.390;2022-07-06T16:58:32;78986.47;;;18.90;100.00
63665;BME280;49820;33.966;73.390;2022-07-06T17:01:05;78971.84;;;18.85;98.35
63665;BME280;49820;33.966;73.390;2022-07-06T17:03:37;78978.28;;;18.92;98.35
63665;BME280;49820;33.966;73.390;2022-07-06T17:06:13;79000.13;;;19.03;98.80
63665;BME280;49820;33.966;73.390;2022-07-06T17:08:49;78983.59;;;18.94;97.01
63665;BME280;49820;33.966;73.390;2022-07-06T17:11:22;78993.19;;;19.06;96.95
63665;BME280;49820;33.966;73.390;2022-07-06T17:13:53;78993.97;;;19.04;97.08
63665;BME280;49820;33.966;73.390;2022-07-06T17:16:25;79004.22;;;19.02;98.95
63665;BME280;49820;33.966;73.390;2022-07-06T17:18:57;78999.28;;;18.92;100.00
63665;BME280;49820;33.966;73.390;2022-07-06T17:21:34;79015.53;;;18.77;100.00
63665;BME280;49820;33.966;73.390;2022-07-06T17:24:08;79016.44;;;18.57;100.00
63665;BME280;49820;33.966;73.390;2022-07-06T17:26:45;78988.66;;;18.12;100.00
63665;BME280;49820;33.966;73.390;2022-07-06T17:29:20;79019.72;;;18.28;100.00
63665;BME280;49820;33.966;73.390;2022-07-06T17:31:52;79022.78;;;18.20;100.00
63665;BME280;49820;33.966;73.390;2022-07-06T17:34:23;78970.41;;;17.81;100.00
63665;BME280;49820;33.966;73.390;2022-07-06T17:36:56;79021.09;;;18.12;100.00
63665;BME280;49820;33.966;73.390;2022-07-06T17:39:30;79031.19;;;18.14;100.00
63665;BME280;49820;33.966;73.390;2022-07-06T17:42:06;79032.66;;;18.11;100.00
63665;BME280;49820;33.966;73.390;2022-07-06T17:44:37;79038.91;;;18.07;100.00
63665;BME280;49820;33.966;73.390;2022-07-06T17:47:10;79042.34;;;18.06;100.00
63665;BME280;49820;33.966;73.390;2022-07-06T17:49:47;79029.34;;;17.93;100.00
63665;BME280;49820;33.966;73.390;2022-07-06T17:52:22;79045.13;;;18.04;100.00
63665;BME280;49820;33.966;73.390;2022-07-06T17:54:57;79042.03;;;17.97;100.00
63665;BME280;49820;33.966;73.390;2022-07-06T17:57:28;79046.72;;;17.99;100.00
63665;BME280;49820;33.966;73.390;2022-07-06T17:59:58;79044.81;;;17.95;100.00
63665;BME280;49820;33.966;73.390;2022-07-06T18:02:30;79025.94;;;17.78;100.00
63665;BME280;49820;33.966;73.390;2022-07-06T18:05:05;79054.91;;;17.97;100.00
63665;BME280;49820;33.966;73.390;2022-07-06T18:07:37;79055.41;;;17.84;100.00
63665;BME280;49820;33.966;73.390;2022-07-06T18:10:09;79039.47;;;17.62;100.00
63665;BME280;49820;33.966;73.390;2022-07-06T18:12:41;79044.06;;;17.65;100.00
63665;BME280;49820;33.966;73.390;2022-07-06T18:15:13;79019.34;;;17.42;100.00
63665;BME280;49820;33.966;73.390;2022-07-06T18:17:47;79013.44;;;17.37;100.00
63665;BME280;49820;33.966;73.390;2022-07-06T18:20:31;79056.38;;;17.60;100.00
63665;BME280;49820;33.966;73.390;2022-07-06T18:23:02;79053.47;;;17.49;100.00
63665;BME280;49820;33.966;73.390;2022-07-06T18:25:36;79035.78;;;17.36;100.00
63665;BME280;49820;33.966;73.390;2022-07-06T18:28:08;79039.91;;;17.35;100.00
63665;BME280;49820;33.966;73.390;2022-07-06T18:30:47;79050.75;;;17.49;100.00
63665;BME280;49820;33.966;73.390;2022-07-06T18:33:19;79045.38;;;17.49;100.00